createdAt,value
2023-06-29T00:00:27.920Z,95504.00
2023-06-29T00:01:27.918Z,95502.00
2023-06-29T00:02:27.925Z,95506.00
2023-06-29T00:03:27.916Z,95508.00
2023-06-29T00:04:27.902Z,95504.00
2023-06-29T00:05:27.868Z,95502.00
2023-06-29T00:06:27.869Z,95502.00
2023-06-29T00:07:28.071Z,95502.00
2023-06-29T00:08:27.850Z,95498.00
2023-06-29T00:09:27.837Z,95500.00
2023-06-29T00:10:27.841Z,95500.00
2023-06-29T00:11:27.829Z,95500.00
2023-06-29T00:12:27.838Z,95504.00
2023-06-29T00:13:27.810Z,95502.00
2023-06-29T00:14:27.823Z,95502.00
2023-06-29T00:15:27.799Z,95506.00
2023-06-29T00:16:27.854Z,95502.00
2023-06-29T00:17:27.803Z,95506.00
2023-06-29T00:18:27.779Z,95502.00
2023-06-29T00:19:27.809Z,95500.00
2023-06-29T00:20:27.819Z,95498.00
2023-06-29T00:21:27.744Z,95498.00
2023-06-29T00:22:27.734Z,95498.00
2023-06-29T00:23:27.732Z,95498.00
2023-06-29T00:24:27.746Z,95500.00
2023-06-29T00:25:27.747Z,95498.00
2023-06-29T00:26:27.761Z,95498.00
2023-06-29T00:27:27.778Z,95498.00
2023-06-29T00:28:27.835Z,95496.00
2023-06-29T00:29:27.865Z,95498.00
2023-06-29T00:30:27.819Z,95496.00
2023-06-29T00:31:27.935Z,95494.00
2023-06-29T00:32:27.912Z,95494.00
2023-06-29T00:33:27.864Z,95494.00
2023-06-29T00:34:27.871Z,95494.00
2023-06-29T00:35:27.886Z,95494.00
2023-06-29T00:36:27.894Z,95494.00
2023-06-29T00:37:27.909Z,95494.00
2023-06-29T00:38:27.923Z,95492.00
2023-06-29T00:39:27.936Z,95492.00
2023-06-29T00:40:27.942Z,95492.00
2023-06-29T00:41:27.954Z,95490.00
2023-06-29T00:42:27.958Z,95492.00
2023-06-29T00:43:27.962Z,95492.00
2023-06-29T00:44:28.004Z,95490.00
2023-06-29T00:45:27.990Z,95494.00
2023-06-29T00:46:28.011Z,95490.00
2023-06-29T00:47:28.037Z,95490.00
2023-06-29T00:48:28.025Z,95492.00
2023-06-29T00:49:28.027Z,95490.00
2023-06-29T00:50:28.064Z,95494.00
2023-06-29T00:51:28.057Z,95494.00
2023-06-29T00:52:28.069Z,95490.00
2023-06-29T00:53:28.081Z,95492.00
2023-06-29T00:54:28.089Z,95492.00
2023-06-29T00:55:28.110Z,95492.00
2023-06-29T00:56:28.113Z,95492.00
2023-06-29T00:57:28.136Z,95492.00
2023-06-29T00:58:28.138Z,95494.00
2023-06-29T00:59:28.150Z,95492.00
2023-06-29T01:00:28.297Z,95490.00
2023-06-29T01:01:28.218Z,95490.00
2023-06-29T01:02:28.268Z,95486.00
2023-06-29T01:03:28.274Z,95488.00
2023-06-29T01:04:28.215Z,95484.00
2023-06-29T01:05:28.229Z,95484.00
2023-06-29T01:06:28.246Z,95482.00
2023-06-29T01:07:28.336Z,95480.00
2023-06-29T01:08:28.266Z,95482.00
2023-06-29T01:09:29.221Z,95478.00
2023-06-29T01:10:28.312Z,95477.00
2023-06-29T01:11:28.309Z,95477.00
2023-06-29T01:12:28.316Z,95477.00
2023-06-29T01:13:28.333Z,95478.00
2023-06-29T01:14:28.356Z,95480.00
2023-06-29T01:15:28.369Z,95482.00
2023-06-29T01:16:28.440Z,95480.00
2023-06-29T01:17:28.444Z,95480.00
2023-06-29T01:18:28.411Z,95480.00
2023-06-29T01:19:28.424Z,95478.00
2023-06-29T01:20:28.437Z,95477.00
2023-06-29T01:21:28.461Z,95478.00
2023-06-29T01:22:28.486Z,95477.00
2023-06-29T01:23:28.493Z,95477.00
2023-06-29T01:24:28.506Z,95477.00
2023-06-29T01:25:28.531Z,95475.00
2023-06-29T01:26:28.529Z,95475.00
2023-06-29T01:27:28.545Z,95477.00
2023-06-29T01:28:28.569Z,95477.00
2023-06-29T01:29:28.587Z,95478.00
2023-06-29T01:30:28.601Z,95478.00
2023-06-29T01:31:28.631Z,95475.00
2023-06-29T01:32:28.637Z,95478.00
2023-06-29T01:33:28.621Z,95477.00
2023-06-29T01:34:28.629Z,95475.00
2023-06-29T01:35:28.648Z,95477.00
2023-06-29T01:36:28.673Z,95475.00
2023-06-29T01:37:28.692Z,95477.00
2023-06-29T01:38:28.671Z,95477.00
2023-06-29T01:39:28.692Z,95475.00
2023-06-29T01:40:28.701Z,95475.00
2023-06-29T01:41:28.718Z,95475.00
2023-06-29T01:42:28.736Z,95471.00
2023-06-29T01:43:28.797Z,95471.00
2023-06-29T01:44:28.764Z,95473.00
2023-06-29T01:45:28.790Z,95471.00
2023-06-29T01:46:28.849Z,95475.00
2023-06-29T01:47:28.837Z,95473.00
2023-06-29T01:48:28.815Z,95471.00
2023-06-29T01:49:28.802Z,95469.00
2023-06-29T01:50:28.817Z,95471.00
2023-06-29T01:51:28.833Z,95469.00
2023-06-29T01:52:28.898Z,95467.00
2023-06-29T01:53:29.816Z,95467.00
2023-06-29T01:54:28.850Z,95465.00
2023-06-29T01:55:28.847Z,95465.00
2023-06-29T01:56:28.833Z,95463.00
2023-06-29T01:57:28.864Z,95463.00
2023-06-29T01:58:28.853Z,95463.00
2023-06-29T01:59:28.815Z,95461.00
2023-06-29T02:00:28.827Z,95461.00
2023-06-29T02:01:28.819Z,95461.00
2023-06-29T02:02:28.901Z,95459.00
2023-06-29T02:03:28.843Z,95461.00
2023-06-29T02:04:28.805Z,95463.00
2023-06-29T02:05:28.777Z,95459.00
2023-06-29T02:06:28.774Z,95459.00
2023-06-29T02:07:28.910Z,95459.00
2023-06-29T02:08:28.767Z,95459.00
2023-06-29T02:09:28.744Z,95457.00
2023-06-29T02:10:28.728Z,95457.00
2023-06-29T02:11:28.725Z,95457.00
2023-06-29T02:12:28.791Z,95455.00
2023-06-29T02:13:28.723Z,95457.00
2023-06-29T02:14:28.714Z,95455.00
2023-06-29T02:15:28.702Z,95455.00
2023-06-29T02:16:28.724Z,95453.00
2023-06-29T02:17:28.762Z,95455.00
2023-06-29T02:18:28.689Z,95453.00
2023-06-29T02:19:28.676Z,95455.00
2023-06-29T02:20:28.724Z,95455.00
2023-06-29T02:21:28.662Z,95453.00
2023-06-29T02:22:28.672Z,95451.00
2023-06-29T02:23:28.651Z,95451.00
2023-06-29T02:24:28.645Z,95445.00
2023-06-29T02:25:28.628Z,95447.00
2023-06-29T02:26:28.622Z,95445.00
2023-06-29T02:27:28.639Z,95445.00
2023-06-29T02:28:28.668Z,95445.00
2023-06-29T02:29:28.595Z,95443.00
2023-06-29T02:30:28.586Z,95441.00
2023-06-29T02:31:28.656Z,95443.00
2023-06-29T02:32:28.607Z,95441.00
2023-06-29T02:33:28.573Z,95441.00
2023-06-29T02:34:28.569Z,95441.00
2023-06-29T02:35:28.571Z,95441.00
2023-06-29T02:36:28.609Z,95441.00
2023-06-29T02:37:28.543Z,95439.00
2023-06-29T02:38:28.530Z,95439.00
2023-06-29T02:39:28.525Z,95435.00
2023-06-29T02:40:28.511Z,95437.00
2023-06-29T02:41:28.503Z,95439.00
2023-06-29T02:42:28.533Z,95439.00
2023-06-29T02:43:28.494Z,95437.00
2023-06-29T02:44:28.488Z,95441.00
2023-06-29T02:45:28.476Z,95443.00
2023-06-29T02:46:28.528Z,95445.00
2023-06-29T02:47:28.504Z,95445.00
2023-06-29T02:48:28.476Z,95443.00
2023-06-29T02:49:28.451Z,95443.00
2023-06-29T02:50:28.442Z,95443.00
2023-06-29T02:51:28.426Z,95445.00
2023-06-29T02:52:28.444Z,95445.00
2023-06-29T02:53:28.440Z,95445.00
2023-06-29T02:54:28.406Z,95447.00
2023-06-29T02:55:28.419Z,95445.00
2023-06-29T02:56:28.438Z,95447.00
2023-06-29T02:57:28.465Z,95447.00
2023-06-29T02:58:28.483Z,95449.00
2023-06-29T02:59:28.517Z,95451.00
2023-06-29T03:00:28.530Z,95449.00
2023-06-29T03:01:28.584Z,95451.00
2023-06-29T03:02:28.607Z,95447.00
2023-06-29T03:03:28.766Z,95449.00
2023-06-29T03:04:28.626Z,95449.00
2023-06-29T03:05:28.644Z,95453.00
2023-06-29T03:06:28.653Z,95453.00
2023-06-29T03:07:28.734Z,95455.00
2023-06-29T03:08:28.715Z,95455.00
2023-06-29T03:09:28.715Z,95455.00
2023-06-29T03:10:28.752Z,95453.00
2023-06-29T03:11:28.745Z,95453.00
2023-06-29T03:12:28.761Z,95453.00
2023-06-29T03:13:28.777Z,95453.00
2023-06-29T03:14:28.870Z,95453.00
2023-06-29T03:15:28.814Z,95457.00
2023-06-29T03:16:28.878Z,95457.00
2023-06-29T03:17:28.986Z,95455.00
2023-06-29T03:18:28.881Z,95455.00
2023-06-29T03:19:28.928Z,95455.00
2023-06-29T03:20:28.927Z,95455.00
2023-06-29T03:21:28.949Z,95455.00
2023-06-29T03:22:28.964Z,95455.00
2023-06-29T03:23:29.003Z,95453.00
2023-06-29T03:24:29.032Z,95457.00
2023-06-29T03:25:29.054Z,95455.00
2023-06-29T03:26:29.067Z,95453.00
2023-06-29T03:27:29.077Z,95455.00
2023-06-29T03:28:29.102Z,95455.00
2023-06-29T03:29:29.150Z,95453.00
2023-06-29T03:30:29.164Z,95455.00
2023-06-29T03:31:29.199Z,95453.00
2023-06-29T03:32:29.239Z,95453.00
2023-06-29T03:33:29.223Z,95453.00
2023-06-29T03:34:29.354Z,95453.00
2023-06-29T03:35:29.282Z,95451.00
2023-06-29T03:36:29.299Z,95453.00
2023-06-29T03:37:29.314Z,95453.00
2023-06-29T03:38:29.341Z,95455.00
2023-06-29T03:39:29.357Z,95453.00
2023-06-29T03:40:29.416Z,95453.00
2023-06-29T03:41:29.418Z,95453.00
2023-06-29T03:42:29.439Z,95453.00
2023-06-29T03:43:29.462Z,95451.00
2023-06-29T03:44:29.492Z,95447.00
2023-06-29T03:45:29.537Z,95449.00
2023-06-29T03:46:29.548Z,95449.00
2023-06-29T03:47:29.679Z,95445.00
2023-06-29T03:48:29.712Z,95447.00
2023-06-29T03:49:29.651Z,95445.00
2023-06-29T03:50:29.631Z,95447.00
2023-06-29T03:51:29.658Z,95447.00
2023-06-29T03:52:29.686Z,95445.00
2023-06-29T03:53:29.764Z,95443.00
2023-06-29T03:54:29.729Z,95445.00
2023-06-29T03:55:29.752Z,95443.00
2023-06-29T03:56:29.822Z,95445.00
2023-06-29T03:57:29.809Z,95445.00
2023-06-29T03:58:29.839Z,95445.00
2023-06-29T03:59:29.866Z,95445.00
2023-06-29T04:00:29.896Z,95445.00
2023-06-29T04:01:29.953Z,95447.00
2023-06-29T04:02:30.061Z,95447.00
2023-06-29T04:03:30.049Z,95447.00
2023-06-29T04:04:30.011Z,95445.00
2023-06-29T04:05:30.043Z,95443.00
2023-06-29T04:06:30.079Z,95445.00
2023-06-29T04:07:30.221Z,95445.00
2023-06-29T04:08:30.126Z,95443.00
2023-06-29T04:09:30.169Z,95445.00
2023-06-29T04:10:30.170Z,95443.00
2023-06-29T04:11:30.200Z,95443.00
2023-06-29T04:12:30.320Z,95447.00
2023-06-29T04:13:30.241Z,95445.00
2023-06-29T04:14:30.276Z,95447.00
2023-06-29T04:15:30.302Z,95445.00
2023-06-29T04:16:30.381Z,95447.00
2023-06-29T04:17:30.364Z,95447.00
2023-06-29T04:18:30.379Z,95451.00
2023-06-29T04:19:30.390Z,95447.00
2023-06-29T04:20:30.412Z,95449.00
2023-06-29T04:21:30.453Z,95451.00
2023-06-29T04:22:30.442Z,95449.00
2023-06-29T04:23:30.477Z,95449.00
2023-06-29T04:24:30.490Z,95449.00
2023-06-29T04:25:30.512Z,95451.00
2023-06-29T04:26:30.571Z,95451.00
2023-06-29T04:27:33.151Z,95451.00
2023-06-29T04:28:30.584Z,95453.00
2023-06-29T04:29:30.543Z,95453.00
2023-06-29T04:30:30.568Z,95453.00
2023-06-29T04:31:30.537Z,95449.00
2023-06-29T04:32:30.575Z,95449.00
2023-06-29T04:33:30.547Z,95449.00
2023-06-29T04:34:30.513Z,95449.00
2023-06-29T04:35:30.499Z,95449.00
2023-06-29T04:36:30.495Z,95449.00
2023-06-29T04:37:30.498Z,95449.00
2023-06-29T04:38:30.495Z,95449.00
2023-06-29T04:39:30.493Z,95449.00
2023-06-29T04:40:30.460Z,95445.00
2023-06-29T04:41:30.458Z,95447.00
2023-06-29T04:42:30.456Z,95447.00
2023-06-29T04:43:30.442Z,95445.00
2023-06-29T04:44:30.459Z,95447.00
2023-06-29T04:45:30.447Z,95445.00
2023-06-29T04:46:30.499Z,95447.00
2023-06-29T04:47:30.489Z,95445.00
2023-06-29T04:48:30.447Z,95445.00
2023-06-29T04:49:30.473Z,95447.00
2023-06-29T04:50:30.390Z,95445.00
2023-06-29T04:51:30.431Z,95447.00
2023-06-29T04:52:30.384Z,95445.00
2023-06-29T04:53:30.396Z,95445.00
2023-06-29T04:54:30.385Z,95443.00
2023-06-29T04:55:30.371Z,95443.00
2023-06-29T04:56:30.450Z,95441.00
2023-06-29T04:57:30.349Z,95441.00
2023-06-29T04:58:30.372Z,95439.00
2023-06-29T04:59:30.348Z,95439.00
2023-06-29T05:00:30.353Z,95439.00
2023-06-29T05:01:30.341Z,95437.00
2023-06-29T05:02:30.467Z,95437.00
2023-06-29T05:03:30.379Z,95435.00
2023-06-29T05:04:30.502Z,95433.00
2023-06-29T05:05:30.328Z,95433.00
2023-06-29T05:06:30.362Z,95424.00
2023-06-29T05:07:30.492Z,95422.00
2023-06-29T05:08:30.436Z,95424.00
2023-06-29T05:09:30.473Z,95424.00
2023-06-29T05:10:30.470Z,95431.00
2023-06-29T05:11:32.048Z,95431.00
2023-06-29T05:12:30.493Z,95424.00
2023-06-29T05:13:30.507Z,95424.00
2023-06-29T05:14:30.465Z,95422.00
2023-06-29T05:15:30.498Z,95420.00
2023-06-29T05:16:30.575Z,95418.00
2023-06-29T05:17:31.475Z,95418.00
2023-06-29T05:18:30.491Z,95416.00
2023-06-29T05:19:30.435Z,95420.00
2023-06-29T05:20:30.428Z,95422.00
2023-06-29T05:21:30.889Z,95420.00
2023-06-29T05:22:30.408Z,95420.00
2023-06-29T05:23:30.407Z,95420.00
2023-06-29T05:24:30.404Z,95418.00
2023-06-29T05:25:30.856Z,95418.00
2023-06-29T05:26:30.395Z,95414.00
2023-06-29T05:27:30.367Z,95410.00
2023-06-29T05:28:30.398Z,95412.00
2023-06-29T05:29:30.359Z,95412.00
2023-06-29T05:30:30.380Z,95408.00
2023-06-29T05:31:30.379Z,95408.00
2023-06-29T05:32:30.425Z,95408.00
2023-06-29T05:33:30.337Z,95406.00
2023-06-29T05:34:30.333Z,95402.00
2023-06-29T05:35:30.382Z,95398.00
2023-06-29T05:36:30.336Z,95396.00
2023-06-29T05:37:30.294Z,95398.00
2023-06-29T05:38:30.304Z,95396.00
2023-06-29T05:39:30.289Z,95398.00
2023-06-29T05:40:30.276Z,95398.00
2023-06-29T05:41:30.262Z,95398.00
2023-06-29T05:42:30.266Z,95394.00
2023-06-29T05:43:30.269Z,95394.00
2023-06-29T05:44:30.259Z,95392.00
2023-06-29T05:45:30.239Z,95394.00
2023-06-29T05:46:30.364Z,95394.00
2023-06-29T05:47:30.269Z,95394.00
2023-06-29T05:48:30.358Z,95394.00
2023-06-29T05:49:30.205Z,95392.00
2023-06-29T05:50:30.214Z,95394.00
2023-06-29T05:51:30.248Z,95392.00
2023-06-29T05:52:30.292Z,95392.00
2023-06-29T05:53:30.343Z,95394.00
2023-06-29T05:54:30.365Z,95394.00
2023-06-29T05:55:30.392Z,95388.00
2023-06-29T05:56:30.423Z,95390.00
2023-06-29T05:57:30.460Z,95390.00
2023-06-29T05:58:30.837Z,95390.00
2023-06-29T05:59:30.505Z,95386.00
2023-06-29T06:00:30.624Z,95383.00
2023-06-29T06:01:30.680Z,95386.00
2023-06-29T06:02:30.999Z,95383.00
2023-06-29T06:03:30.895Z,95383.00
2023-06-29T06:04:30.770Z,95383.00
2023-06-29T06:05:30.878Z,95385.00
2023-06-29T06:06:30.699Z,95383.00
2023-06-29T06:07:30.782Z,95380.00
2023-06-29T06:08:30.678Z,95378.00
2023-06-29T06:09:30.716Z,95378.00
2023-06-29T06:10:31.191Z,95378.00
2023-06-29T06:11:31.700Z,95377.00
2023-06-29T06:12:30.713Z,95378.00
2023-06-29T06:13:30.721Z,95375.00
2023-06-29T06:14:30.776Z,95377.00
2023-06-29T06:15:30.843Z,95378.00
2023-06-29T06:16:30.902Z,95378.00
2023-06-29T06:17:30.931Z,95380.00
2023-06-29T06:18:30.953Z,95377.00
2023-06-29T06:19:31.004Z,95378.00
2023-06-29T06:20:32.076Z,95378.00
2023-06-29T06:21:31.090Z,95377.00
2023-06-29T06:22:31.162Z,95375.00
2023-06-29T06:23:33.998Z,95373.00
2023-06-29T06:24:31.202Z,95375.00
2023-06-29T06:25:31.405Z,95375.00
2023-06-29T06:26:31.360Z,95375.00
2023-06-29T06:27:31.253Z,95371.00
2023-06-29T06:28:31.148Z,95369.00
2023-06-29T06:29:31.163Z,95371.00
2023-06-29T06:30:31.137Z,95369.00
2023-06-29T06:31:34.783Z,95371.00
2023-06-29T06:32:31.173Z,95367.00
2023-06-29T06:33:31.110Z,95365.00
2023-06-29T06:34:31.099Z,95365.00
2023-06-29T06:35:31.087Z,95363.00
2023-06-29T06:36:31.116Z,95361.00
2023-06-29T06:37:31.072Z,95359.00
2023-06-29T06:38:48.388Z,95357.00
2023-06-29T06:39:31.055Z,95355.00
2023-06-29T06:40:31.057Z,95355.00
2023-06-29T06:41:31.037Z,95355.00
2023-06-29T06:42:31.033Z,95351.00
2023-06-29T06:43:31.355Z,95349.00
2023-06-29T06:44:31.023Z,95349.00
2023-06-29T06:45:31.012Z,95351.00
2023-06-29T06:46:31.028Z,95349.00
2023-06-29T06:47:31.123Z,95347.00
2023-06-29T06:48:31.344Z,95347.00
2023-06-29T06:49:31.004Z,95345.00
2023-06-29T06:50:30.986Z,95345.00
2023-06-29T06:51:30.970Z,95347.00
2023-06-29T06:52:31.015Z,95341.00
2023-06-29T06:53:30.953Z,95343.00
2023-06-29T06:54:30.944Z,95343.00
2023-06-29T06:55:30.975Z,95339.00
2023-06-29T06:56:30.934Z,95336.00
2023-06-29T06:57:30.935Z,95334.00
2023-06-29T06:58:31.353Z,95336.00
2023-06-29T06:59:30.920Z,95332.00
2023-06-29T07:00:31.847Z,95330.00
2023-06-29T07:01:31.510Z,95330.00
2023-06-29T07:02:31.002Z,95328.00
2023-06-29T07:03:30.911Z,95330.00
2023-06-29T07:04:30.880Z,95332.00
2023-06-29T07:05:30.913Z,95330.00
2023-06-29T07:06:31.350Z,95326.00
2023-06-29T07:07:30.907Z,95324.00
2023-06-29T07:08:31.119Z,95324.00
2023-06-29T07:09:31.332Z,95322.00
2023-06-29T07:10:30.827Z,95316.00
2023-06-29T07:11:30.819Z,95318.00
2023-06-29T07:12:30.840Z,95318.00
2023-06-29T07:13:31.373Z,95316.00
2023-06-29T07:14:30.939Z,95310.00
2023-06-29T07:15:30.985Z,95312.00
2023-06-29T07:16:31.104Z,95310.00
2023-06-29T07:17:31.456Z,95310.00
2023-06-29T07:18:31.355Z,95308.00
2023-06-29T07:21:30.174Z,95306.00
2023-06-29T07:24:30.205Z,95296.00
2023-06-29T07:25:31.138Z,95298.00
2023-06-29T07:26:31.170Z,95296.00
2023-06-29T07:27:31.150Z,95294.00
2023-06-29T07:28:31.400Z,95294.00
2023-06-29T07:29:31.102Z,95291.00
2023-06-29T07:30:31.138Z,95289.00
2023-06-29T07:31:31.227Z,95289.00
2023-06-29T07:32:31.110Z,95287.00
2023-06-29T07:33:33.219Z,95287.00
2023-06-29T07:34:31.076Z,95289.00
2023-06-29T07:35:31.086Z,95283.00
2023-06-29T07:36:31.330Z,95285.00
2023-06-29T07:37:31.054Z,95287.00
2023-06-29T07:38:31.434Z,95281.00
2023-06-29T07:39:31.051Z,95279.00
2023-06-29T07:40:31.418Z,95281.00
2023-06-29T07:41:31.030Z,95273.00
2023-06-29T07:42:39.560Z,95269.00
2023-06-29T07:43:31.037Z,95265.00
2023-06-29T07:44:31.404Z,95267.00
2023-06-29T07:45:30.996Z,95265.00
2023-06-29T07:46:30.990Z,95257.00
2023-06-29T07:47:31.074Z,95255.00
2023-06-29T07:48:31.220Z,95255.00
2023-06-29T07:49:31.372Z,95251.00
2023-06-29T07:50:30.959Z,95247.00
2023-06-29T07:51:30.948Z,95251.00
2023-06-29T07:52:30.939Z,95249.00
2023-06-29T07:53:31.373Z,95251.00
2023-06-29T07:54:31.375Z,95249.00
2023-06-29T07:55:30.928Z,95247.00
2023-06-29T07:59:29.896Z,95251.00
2023-06-29T08:00:30.896Z,95249.00
2023-06-29T08:01:31.167Z,95249.00
2023-06-29T08:02:30.925Z,95249.00
2023-06-29T08:03:30.923Z,95247.00
2023-06-29T08:07:29.883Z,95244.00
2023-06-29T08:08:30.931Z,95242.00
2023-06-29T08:09:30.840Z,95242.00
2023-06-29T08:10:30.836Z,95242.00
2023-06-29T08:11:30.955Z,95245.00
2023-06-29T08:12:30.837Z,95245.00
2023-06-29T08:13:30.802Z,95240.00
2023-06-29T08:14:30.798Z,95240.00
2023-06-29T08:15:30.796Z,95240.00
2023-06-29T08:16:30.810Z,95240.00
2023-06-29T08:17:30.818Z,95236.00
2023-06-29T08:18:30.822Z,95236.00
2023-06-29T08:19:30.779Z,95234.00
2023-06-29T08:20:30.769Z,95234.00
2023-06-29T08:21:30.758Z,95228.00
2023-06-29T08:22:30.748Z,95228.00
2023-06-29T08:23:30.743Z,95224.00
2023-06-29T08:24:30.893Z,95220.00
2023-06-29T08:25:30.734Z,95216.00
2023-06-29T08:26:30.729Z,95218.00
2023-06-29T08:27:30.713Z,95212.00
2023-06-29T08:28:30.725Z,95216.00
2023-06-29T08:29:30.717Z,95216.00
2023-06-29T08:30:30.692Z,95214.00
2023-06-29T08:31:30.729Z,95206.00
2023-06-29T08:32:30.706Z,95210.00
2023-06-29T08:33:30.772Z,95208.00
2023-06-29T08:34:30.665Z,95208.00
2023-06-29T08:35:30.657Z,95208.00
2023-06-29T08:36:30.923Z,95204.00
2023-06-29T08:37:30.643Z,95206.00
2023-06-29T08:38:30.892Z,95206.00
2023-06-29T08:39:30.624Z,95204.00
2023-06-29T08:40:30.617Z,95204.00
2023-06-29T08:41:30.640Z,95198.00
2023-06-29T08:42:30.613Z,95198.00
2023-06-29T08:43:30.904Z,95198.00
2023-06-29T08:44:30.613Z,95197.00
2023-06-29T08:45:30.897Z,95193.00
2023-06-29T08:46:30.618Z,95197.00
2023-06-29T08:47:30.601Z,95193.00
2023-06-29T08:48:30.969Z,95189.00
2023-06-29T08:49:30.564Z,95185.00
2023-06-29T08:50:30.552Z,95187.00
2023-06-29T08:51:30.540Z,95183.00
2023-06-29T08:52:30.555Z,95183.00
2023-06-29T08:53:30.988Z,95179.00
2023-06-29T08:54:30.610Z,95179.00
2023-06-29T08:55:30.911Z,95177.00
2023-06-29T08:56:30.682Z,95175.00
2023-06-29T08:57:31.277Z,95165.00
2023-06-29T08:58:30.898Z,95161.00
2023-06-29T08:59:30.757Z,95161.00
2023-06-29T09:00:30.828Z,95163.00
2023-06-29T09:01:30.856Z,95159.00
2023-06-29T09:02:30.937Z,95159.00
2023-06-29T09:03:30.994Z,95155.00
2023-06-29T09:04:30.883Z,95157.00
2023-06-29T09:05:30.911Z,95155.00
2023-06-29T09:06:30.944Z,95153.00
2023-06-29T09:07:31.009Z,95151.00
2023-06-29T09:08:31.429Z,95151.00
2023-06-29T09:09:31.047Z,95144.00
2023-06-29T09:10:31.046Z,95145.00
2023-06-29T09:11:31.066Z,95147.00
2023-06-29T09:12:31.091Z,95145.00
2023-06-29T09:13:31.126Z,95145.00
2023-06-29T09:14:31.195Z,95145.00
2023-06-29T09:15:31.411Z,95142.00
2023-06-29T09:16:31.335Z,95142.00
2023-06-29T09:17:31.256Z,95140.00
2023-06-29T09:18:31.267Z,95138.00
2023-06-29T09:19:31.307Z,95136.00
2023-06-29T09:20:31.415Z,95134.00
2023-06-29T09:21:31.353Z,95134.00
2023-06-29T09:22:31.377Z,95132.00
2023-06-29T09:23:31.454Z,95132.00
2023-06-29T09:24:31.435Z,95132.00
2023-06-29T09:25:34.524Z,95132.00
2023-06-29T09:26:31.578Z,95132.00
2023-06-29T09:27:31.455Z,95126.00
2023-06-29T09:28:31.438Z,95124.00
2023-06-29T09:29:31.460Z,95122.00
2023-06-29T09:30:31.467Z,95118.00
2023-06-29T09:31:31.498Z,95120.00
2023-06-29T09:32:31.488Z,95116.00
2023-06-29T09:33:31.441Z,95114.00
2023-06-29T09:34:31.405Z,95114.00
2023-06-29T09:35:31.395Z,95112.00
2023-06-29T09:36:31.415Z,95112.00
2023-06-29T09:37:31.387Z,95110.00
2023-06-29T09:38:31.413Z,95114.00
2023-06-29T09:39:31.374Z,95112.00
2023-06-29T09:40:31.400Z,95108.00
2023-06-29T09:41:31.349Z,95106.00
2023-06-29T09:42:31.383Z,95106.00
2023-06-29T09:43:31.442Z,95100.00
2023-06-29T09:44:31.331Z,95103.00
2023-06-29T09:45:31.331Z,95100.00
2023-06-29T09:46:31.348Z,95100.00
2023-06-29T09:49:30.418Z,95097.00
2023-06-29T09:50:31.439Z,95097.00
2023-06-29T09:51:31.307Z,95097.00
2023-06-29T09:52:31.312Z,95098.00
2023-06-29T09:53:31.310Z,95095.00
2023-06-29T09:54:31.420Z,95091.00
2023-06-29T09:55:31.360Z,95095.00
2023-06-29T09:56:31.263Z,95093.00
2023-06-29T09:57:31.262Z,95093.00
2023-06-29T09:58:31.276Z,95089.00
2023-06-29T09:59:31.261Z,95089.00
2023-06-29T10:00:31.236Z,95085.00
2023-06-29T10:01:31.260Z,95081.00
2023-06-29T10:02:31.347Z,95083.00
2023-06-29T10:03:31.336Z,95083.00
2023-06-29T10:04:31.521Z,95079.00
2023-06-29T10:05:31.220Z,95077.00
2023-06-29T10:06:31.194Z,95075.00
2023-06-29T10:07:31.238Z,95071.00
2023-06-29T10:08:31.458Z,95071.00
2023-06-29T10:09:31.421Z,95073.00
2023-06-29T10:10:31.179Z,95067.00
2023-06-29T10:11:31.164Z,95067.00
2023-06-29T10:12:31.154Z,95067.00
2023-06-29T10:13:31.433Z,95063.00
2023-06-29T10:14:31.163Z,95061.00
2023-06-29T10:15:31.176Z,95061.00
2023-06-29T10:16:31.176Z,95057.00
2023-06-29T10:17:31.216Z,95055.00
2023-06-29T10:18:31.435Z,95057.00
2023-06-29T10:19:31.159Z,95051.00
2023-06-29T10:20:31.158Z,95051.00
2023-06-29T10:21:31.086Z,95051.00
2023-06-29T10:22:31.096Z,95046.00
2023-06-29T10:23:31.445Z,95044.00
2023-06-29T10:24:31.071Z,95042.00
2023-06-29T10:25:31.066Z,95038.00
2023-06-29T10:26:31.049Z,95040.00
2023-06-29T10:27:31.039Z,95038.00
2023-06-29T10:28:31.039Z,95038.00
2023-06-29T10:29:31.025Z,95036.00
2023-06-29T10:30:31.033Z,95034.00
2023-06-29T10:31:31.531Z,95036.00
2023-06-29T10:32:31.020Z,95032.00
2023-06-29T10:33:31.440Z,95032.00
2023-06-29T10:34:31.002Z,95030.00
2023-06-29T10:35:30.993Z,95026.00
2023-06-29T10:36:31.035Z,95028.00
2023-06-29T10:37:30.988Z,95024.00
2023-06-29T10:38:30.965Z,95022.00
2023-06-29T10:39:30.974Z,95022.00
2023-06-29T10:40:30.949Z,95026.00
2023-06-29T10:41:30.952Z,95020.00
2023-06-29T10:42:30.939Z,95020.00
2023-06-29T10:43:30.935Z,95018.00
2023-06-29T10:44:30.929Z,95016.00
2023-06-29T10:45:30.932Z,95016.00
2023-06-29T10:46:31.061Z,95012.00
2023-06-29T10:47:30.954Z,95012.00
2023-06-29T10:48:42.794Z,95010.00
2023-06-29T10:49:30.893Z,95008.00
2023-06-29T10:50:30.876Z,95004.00
2023-06-29T10:51:30.868Z,95004.00
2023-06-29T10:52:30.916Z,95004.00
2023-06-29T10:53:31.193Z,95001.00
2023-06-29T10:54:31.020Z,95003.00
2023-06-29T10:55:30.840Z,95004.00
2023-06-29T10:56:30.837Z,95004.00
2023-06-29T10:57:30.825Z,95003.00
2023-06-29T10:58:30.816Z,95001.00
2023-06-29T10:59:30.895Z,94999.00
2023-06-29T11:00:30.810Z,94999.00
2023-06-29T11:01:30.867Z,94997.00
2023-06-29T11:02:30.854Z,94997.00
2023-06-29T11:03:30.986Z,94993.00
2023-06-29T11:04:30.811Z,94989.00
2023-06-29T11:05:30.761Z,94993.00
2023-06-29T11:06:34.214Z,94987.00
2023-06-29T11:07:30.814Z,94985.00
2023-06-29T11:08:30.997Z,94985.00
2023-06-29T11:09:30.744Z,94979.00
2023-06-29T11:10:30.735Z,94981.00
2023-06-29T11:11:30.718Z,94981.00
2023-06-29T11:12:30.712Z,94979.00
2023-06-29T11:13:30.945Z,94981.00
2023-06-29T11:14:30.715Z,94979.00
2023-06-29T11:15:30.695Z,94977.00
2023-06-29T11:16:30.774Z,94975.00
2023-06-29T11:17:30.772Z,94971.00
2023-06-29T11:18:30.958Z,94971.00
2023-06-29T11:19:30.872Z,94969.00
2023-06-29T11:20:30.920Z,94969.00
2023-06-29T11:21:30.985Z,94969.00
2023-06-29T11:22:31.055Z,94965.00
2023-06-29T11:23:31.109Z,94964.00
2023-06-29T11:24:31.205Z,94962.00
2023-06-29T11:25:31.232Z,94957.00
2023-06-29T11:26:31.281Z,94957.00
2023-06-29T11:27:31.351Z,94957.00
2023-06-29T11:28:31.405Z,94954.00
2023-06-29T11:29:31.458Z,94954.00
2023-06-29T11:30:31.527Z,94952.00
2023-06-29T11:31:31.613Z,94954.00
2023-06-29T11:32:31.664Z,94952.00
2023-06-29T11:34:31.692Z,94950.00
2023-06-29T11:35:31.712Z,94946.00
2023-06-29T11:36:31.680Z,94948.00
2023-06-29T11:37:31.678Z,94944.00
2023-06-29T11:38:32.132Z,94944.00
2023-06-29T11:39:31.810Z,94944.00
2023-06-29T11:40:31.696Z,94940.00
2023-06-29T11:41:31.646Z,94940.00
2023-06-29T11:42:31.715Z,94938.00
2023-06-29T11:43:32.134Z,94938.00
2023-06-29T11:44:31.625Z,94938.00
2023-06-29T11:45:31.631Z,94936.00
2023-06-29T11:46:31.665Z,94936.00
2023-06-29T11:47:33.670Z,94932.00
2023-06-29T11:48:31.782Z,94930.00
2023-06-29T11:49:31.600Z,94930.00
2023-06-29T11:50:31.637Z,94926.00
2023-06-29T11:51:31.591Z,94924.00
2023-06-29T11:52:31.587Z,94924.00
2023-06-29T11:53:31.987Z,94924.00
2023-06-29T11:54:31.587Z,94920.00
2023-06-29T11:55:31.570Z,94920.00
2023-06-29T11:56:31.602Z,94909.00
2023-06-29T11:57:31.555Z,94907.00